createdAt,value
2022-12-08T00:03:55.299Z,98140.34
2022-12-08T00:09:16.506Z,98145.33
2022-12-08T00:14:19.862Z,98143.60
2022-12-08T00:19:23.410Z,98146.79
2022-12-08T00:24:26.877Z,98144.85
2022-12-08T00:29:30.292Z,98150.50
2022-12-08T00:34:33.980Z,98153.45
2022-12-08T00:39:37.401Z,98160.25
2022-12-08T00:44:40.797Z,98158.16
2022-12-08T00:49:44.192Z,98163.65
2022-12-08T00:54:47.552Z,98170.98
2022-12-08T00:59:51.018Z,98182.46
2022-12-08T01:04:54.382Z,98188.13
2022-12-08T01:09:58.552Z,98196.88
2022-12-08T01:15:02.659Z,98191.44
2022-12-08T01:20:06.905Z,98198.95
2022-12-08T01:25:10.539Z,98204.19
2022-12-08T01:30:14.058Z,98199.86
2022-12-08T01:35:17.406Z,98198.23
2022-12-08T01:40:20.789Z,98196.13
2022-12-08T01:45:24.258Z,98189.87
2022-12-08T01:50:27.685Z,98188.70
2022-12-08T01:55:31.065Z,98186.11
2022-12-08T02:00:34.471Z,98185.03
2022-12-08T02:05:37.864Z,98184.90
2022-12-08T02:10:41.370Z,98181.90
2022-12-08T02:15:44.817Z,98186.52
2022-12-08T02:20:48.232Z,98187.15
2022-12-08T02:25:51.655Z,98183.97
2022-12-08T02:30:55.184Z,98183.63
2022-12-08T02:35:58.634Z,98183.95
2022-12-08T02:41:02.070Z,98178.43
2022-12-08T02:46:05.460Z,98177.63
2022-12-08T02:51:08.991Z,98174.08
2022-12-08T02:56:12.378Z,98178.11
2022-12-08T03:01:15.794Z,98180.61
2022-12-08T03:06:19.290Z,98185.04
2022-12-08T03:11:22.735Z,98183.94
2022-12-08T03:16:26.270Z,98180.44
2022-12-08T03:21:29.696Z,98177.48
2022-12-08T03:26:33.069Z,98176.09
2022-12-08T03:31:36.564Z,98176.58
2022-12-08T03:36:39.966Z,98181.23
2022-12-08T03:41:43.348Z,98177.70
2022-12-08T03:46:46.806Z,98171.95
2022-12-08T03:51:50.237Z,98174.93
2022-12-08T03:56:53.633Z,98173.89
2022-12-08T04:01:57.014Z,98171.84
2022-12-08T04:07:00.404Z,98173.17
2022-12-08T04:12:03.804Z,98164.95
2022-12-08T04:17:07.198Z,98174.73
2022-12-08T04:22:10.704Z,98171.45
2022-12-08T04:27:14.108Z,98163.04
2022-12-08T04:32:17.451Z,98168.30
2022-12-08T04:37:20.853Z,98172.02
2022-12-08T04:42:24.216Z,98172.05
2022-12-08T04:47:27.568Z,98165.12
2022-12-08T04:52:30.963Z,98159.40
2022-12-08T04:57:34.310Z,98163.38
2022-12-08T05:02:37.851Z,98159.17
2022-12-08T05:07:41.328Z,98163.30
2022-12-08T05:12:44.801Z,98161.88
2022-12-08T05:17:48.212Z,98164.46
2022-12-08T05:22:51.590Z,98163.30
2022-12-08T05:28:06.159Z,98162.48
2022-12-08T05:33:14.951Z,98160.42
2022-12-08T05:38:18.358Z,98156.56
2022-12-08T05:43:21.757Z,98159.77
2022-12-08T05:48:25.152Z,98158.61
2022-12-08T05:53:28.551Z,98151.08
2022-12-08T05:58:31.982Z,98158.27
2022-12-08T06:03:35.523Z,98172.54
2022-12-08T06:08:38.997Z,98175.88
2022-12-08T06:13:42.409Z,98178.52
2022-12-08T06:18:45.775Z,98176.88
2022-12-08T06:23:49.211Z,98177.66
2022-12-08T06:28:52.681Z,98187.95
2022-12-08T06:33:56.063Z,98191.39
2022-12-08T06:38:59.929Z,98192.05
2022-12-08T06:44:03.339Z,98199.20
2022-12-08T06:49:06.717Z,98205.54
2022-12-08T06:54:10.132Z,98214.29
2022-12-08T06:59:13.518Z,98212.27
2022-12-08T07:04:16.907Z,98217.38
2022-12-08T07:09:20.368Z,98215.84
2022-12-08T07:14:24.909Z,98216.95
2022-12-08T07:19:28.348Z,98216.52
2022-12-08T07:24:31.716Z,98214.98
2022-12-08T07:29:35.116Z,98211.83
2022-12-08T07:34:38.524Z,98212.27
2022-12-08T07:39:41.893Z,98210.94
2022-12-08T07:44:45.472Z,98215.17
2022-12-08T07:49:48.840Z,98213.29
2022-12-08T07:54:52.230Z,98212.05
2022-12-08T07:59:55.592Z,98212.06
2022-12-08T08:04:59.063Z,98213.39
2022-12-08T08:10:02.969Z,98216.19
2022-12-08T08:15:07.381Z,98221.80
2022-12-08T08:20:10.834Z,98222.23
2022-12-08T08:25:14.204Z,98219.25
2022-12-08T08:30:20.740Z,98216.04
2022-12-08T08:35:24.523Z,98215.29
2022-12-08T08:40:27.911Z,98213.81
2022-12-08T08:45:31.267Z,98207.64
2022-12-08T08:50:37.737Z,98208.77
2022-12-08T08:55:41.407Z,98207.27
2022-12-08T09:00:44.848Z,98206.57
2022-12-08T09:05:48.307Z,98199.35
2022-12-08T09:10:51.740Z,98201.90
2022-12-08T09:15:55.166Z,98199.77
2022-12-08T09:20:58.620Z,98197.27
2022-12-08T09:26:02.116Z,98193.63
2022-12-08T09:31:05.617Z,98184.55
2022-12-08T09:36:09.091Z,98181.27
2022-12-08T09:41:12.459Z,98175.86
2022-12-08T09:46:15.907Z,98168.84
2022-12-08T09:51:19.344Z,98158.66
2022-12-08T09:56:23.002Z,98158.75
2022-12-08T10:01:26.453Z,98158.31
2022-12-08T10:06:29.902Z,98156.17
2022-12-08T10:11:33.266Z,98150.98
2022-12-08T10:16:36.778Z,98147.91
2022-12-08T10:21:40.596Z,98148.44
2022-12-08T10:26:44.001Z,98139.70
2022-12-08T10:31:47.488Z,98136.94
2022-12-08T10:36:50.992Z,98134.55
2022-12-08T10:41:54.382Z,98129.54
2022-12-08T10:46:57.884Z,98125.44
2022-12-08T10:52:01.303Z,98120.88
2022-12-08T10:57:04.730Z,98116.38
2022-12-08T11:02:08.201Z,98114.84
2022-12-08T11:07:11.986Z,98116.65
2022-12-08T11:12:15.562Z,98112.56
2022-12-08T11:17:19.010Z,98112.85
2022-12-08T11:22:22.429Z,98115.89
2022-12-08T11:27:25.860Z,98117.07
2022-12-08T11:32:29.320Z,98120.02
2022-12-08T11:37:34.977Z,98116.41
2022-12-08T11:42:38.744Z,98115.14
2022-12-08T11:47:42.133Z,98116.12
2022-12-08T11:52:45.599Z,98113.85
2022-12-08T11:57:49.144Z,98111.55
2022-12-08T12:02:52.577Z,98115.40
2022-12-08T12:07:56.177Z,98115.36
2022-12-08T12:12:59.634Z,98112.45
2022-12-08T12:18:03.003Z,98111.45
2022-12-08T12:23:06.915Z,98107.69
2022-12-08T12:28:10.306Z,98109.84
2022-12-08T12:33:15.532Z,98106.75
2022-12-08T12:38:32.835Z,98107.00
2022-12-08T12:43:36.318Z,98101.69
2022-12-08T12:48:39.728Z,98098.88
2022-12-08T12:53:43.135Z,98097.83
2022-12-08T12:58:46.552Z,98090.32
2022-12-08T13:03:50.002Z,98096.70
2022-12-08T13:08:53.385Z,98099.20
2022-12-08T13:13:56.855Z,98102.10
2022-12-08T13:19:02.275Z,98102.27
2022-12-08T13:24:05.669Z,98100.61
2022-12-08T13:29:11.236Z,98096.98
2022-12-08T13:34:14.595Z,98095.40
2022-12-08T13:39:18.098Z,98093.70
2022-12-08T13:45:17.944Z,98102.05
2022-12-08T13:59:59.148Z,98107.00
2022-12-08T14:05:18.151Z,98107.94
2022-12-08T14:10:23.831Z,98105.45
2022-12-08T14:15:29.271Z,98101.46
2022-12-08T14:20:57.998Z,98098.92
2022-12-08T14:25:59.487Z,98099.79
2022-12-08T14:31:02.979Z,98100.89
2022-12-08T14:36:06.408Z,98100.92
2022-12-08T14:41:09.791Z,98102.36
2022-12-08T14:46:13.224Z,98106.46
2022-12-08T14:51:16.664Z,98104.08
2022-12-08T14:56:20.457Z,98105.44
2022-12-08T15:01:24.242Z,98106.87
2022-12-08T15:06:27.715Z,98101.07
2022-12-08T15:11:31.094Z,98100.77
2022-12-08T15:16:34.531Z,98096.98
2022-12-08T15:21:38.070Z,98100.33
2022-12-08T15:26:41.462Z,98097.77
2022-12-08T15:31:44.915Z,98094.11
2022-12-08T15:36:48.481Z,98095.55
2022-12-08T15:41:51.851Z,98096.53
2022-12-08T15:46:56.366Z,98098.83
2022-12-08T15:52:10.598Z,98092.07
2022-12-08T15:58:04.605Z,98090.20
2022-12-08T16:03:05.131Z,98083.89
2022-12-08T16:08:17.075Z,98078.76
2022-12-08T16:13:57.553Z,98074.34
2022-12-08T16:19:01.918Z,98071.42
2022-12-08T16:24:09.196Z,98068.69
2022-12-08T16:29:13.036Z,98071.73
2022-12-08T16:34:16.497Z,98071.67
2022-12-08T16:39:20.072Z,98070.75
2022-12-08T16:44:23.679Z,98067.81
2022-12-08T16:49:27.055Z,98064.91
2022-12-08T16:54:30.429Z,98068.00
2022-12-08T16:59:33.806Z,98067.73
2022-12-08T17:04:51.108Z,98070.16
2022-12-08T17:09:54.512Z,98062.68
2022-12-08T17:14:57.949Z,98061.89
2022-12-08T17:20:20.632Z,98058.26
2022-12-08T17:31:04.303Z,98064.80
2022-12-08T17:36:07.670Z,98066.20
2022-12-08T17:41:11.074Z,98067.54
2022-12-08T17:46:14.551Z,98060.00
2022-12-08T17:51:21.092Z,98060.38
2022-12-08T17:56:24.497Z,98059.25
2022-12-08T18:01:28.707Z,98056.63
2022-12-08T18:06:32.294Z,98051.33
2022-12-08T18:11:35.714Z,98050.07
2022-12-08T18:16:39.157Z,98046.91
2022-12-08T18:21:50.146Z,98045.82
2022-12-08T18:26:55.315Z,98038.30
2022-12-08T18:31:58.707Z,98033.79
2022-12-08T18:37:02.091Z,98031.86
2022-12-08T18:42:22.738Z,98025.71
2022-12-08T18:47:26.971Z,98024.70
2022-12-08T18:52:32.662Z,98023.14
2022-12-08T18:57:36.144Z,98020.45
2022-12-08T19:02:39.599Z,98024.23
2022-12-08T19:07:43.757Z,98022.56
2022-12-08T19:12:48.302Z,98022.67
2022-12-08T19:17:51.721Z,98021.23
2022-12-08T19:22:55.327Z,98021.02
2022-12-08T19:27:58.744Z,98022.59
2022-12-08T19:33:02.244Z,98021.60
2022-12-08T19:38:05.688Z,98026.08
2022-12-08T19:43:26.987Z,98025.79
2022-12-08T19:48:30.596Z,98022.96
2022-12-08T19:53:34.052Z,98021.53
2022-12-08T19:58:37.451Z,98019.80
2022-12-08T20:03:40.989Z,98012.63
2022-12-08T20:08:50.183Z,98007.77
2022-12-08T20:13:53.994Z,98010.33
2022-12-08T20:18:57.609Z,98013.88
2022-12-08T20:24:01.013Z,98017.48
2022-12-08T20:29:05.473Z,98015.46
2022-12-08T20:34:08.828Z,98013.59
2022-12-08T20:39:12.254Z,98014.26
2022-12-08T20:44:15.703Z,98013.09
2022-12-08T20:49:19.234Z,98015.51
2022-12-08T20:54:22.848Z,98015.69
2022-12-08T20:59:27.008Z,98016.51
2022-12-08T21:04:30.704Z,98018.59
2022-12-08T21:09:34.437Z,98017.61
2022-12-08T21:14:37.953Z,98016.59
2022-12-08T21:19:42.480Z,98012.75
2022-12-08T21:24:46.090Z,98017.35
2022-12-08T21:29:49.696Z,98010.30
2022-12-08T21:34:53.275Z,98013.52
2022-12-08T21:39:57.234Z,98012.83
2022-12-08T21:45:01.268Z,98010.82
2022-12-08T21:50:05.551Z,98006.87
2022-12-08T21:55:09.767Z,98001.44
2022-12-08T22:00:13.503Z,98001.02
2022-12-08T22:05:17.109Z,97995.48
2022-12-08T22:10:21.148Z,97992.66
2022-12-08T22:15:24.700Z,97990.98
2022-12-08T22:20:28.219Z,97989.42
2022-12-08T22:25:31.878Z,97990.34
2022-12-08T22:30:39.035Z,97990.56
2022-12-08T22:35:43.058Z,97986.02
2022-12-08T22:40:46.550Z,97987.19
2022-12-08T22:45:50.543Z,97982.20
2022-12-08T22:50:54.054Z,97983.86
2022-12-08T22:55:57.495Z,97980.89
2022-12-08T23:01:00.986Z,97984.54
2022-12-08T23:06:04.737Z,97985.65
2022-12-08T23:11:08.202Z,97989.42
2022-12-08T23:16:11.791Z,97982.91
2022-12-08T23:21:15.340Z,97976.02
2022-12-08T23:26:19.024Z,97974.09
2022-12-08T23:31:22.549Z,97973.31
2022-12-08T23:36:26.980Z,97971.08
2022-12-08T23:41:30.351Z,97967.29
2022-12-08T23:46:33.827Z,97965.23
2022-12-08T23:51:37.502Z,97966.27
2022-12-08T23:56:40.925Z,97967.70
